Time;durP1;ratioP1;P1;durP2;ratioP2;P2;SDS_P1;SDS_P2;PMS_P1;PMS_P2;Temp;Humidity;BMP_temperature;BMP_pressure;BME280_temperature;BME280_humidity;BME280_pressure;Samples;Min_cycle;Max_cycle;Signal;HPM_P1;HPM_P2
2022/09/21 00:00:31;;;;;;;23.50;13.63;;;;;;;;;;5084732;28;20220;-76
2022/09/21 00:02:57;;;;;;;24.27;14.13;;;;;;;;;;5089423;28;20776;-76
2022/09/21 00:05:24;;;;;;;29.07;14.73;;;;;;;;;;5086418;28;20180;-76
2022/09/21 00:07:50;;;;;;;27.80;13.90;;;;;;;;;;5087754;28;20275;-76
2022/09/21 00:10:18;;;;;;;22.87;12.07;;;;;;;;;;5082160;28;20181;-76
2022/09/21 00:12:47;;;;;;;15.50;8.57;;;;;;;;;;5089994;28;20188;-76
2022/09/21 00:15:13;;;;;;;8.97;6.40;;;;;;;;;;5088308;28;20184;-76
2022/09/21 00:17:39;;;;;;;7.87;5.60;;;;;;;;;;5086801;28;20671;-76
2022/09/21 00:20:06;;;;;;;10.13;6.00;;;;;;;;;;5088383;28;20211;-76
2022/09/21 00:22:33;;;;;;;10.40;6.20;;;;;;;;;;5085321;28;20191;-76
2022/09/21 00:25:01;;;;;;;9.37;5.27;;;;;;;;;;5084752;28;20192;-76
2022/09/21 00:27:29;;;;;;;8.90;5.67;;;;;;;;;;5086143;28;20180;-76
2022/09/21 00:29:56;;;;;;;7.97;5.07;;;;;;;;;;5088163;28;20247;-76
2022/09/21 00:32:26;;;;;;;8.60;5.40;;;;;;;;;;5081856;28;20197;-76
2022/09/21 00:34:53;;;;;;;9.50;5.00;;;;;;;;;;5057277;28;20185;-76
2022/09/21 00:37:19;;;;;;;7.47;4.80;;;;;;;;;;5083585;28;20180;-76
2022/09/21 00:39:46;;;;;;;9.33;5.27;;;;;;;;;;5089198;28;20208;-76
2022/09/21 00:42:19;;;;;;;5.60;4.37;;;;;;;;;;5082891;28;20181;-75
2022/09/21 00:44:45;;;;;;;8.00;4.47;;;;;;;;;;5084772;28;20197;-76
2022/09/21 00:47:16;;;;;;;6.60;4.73;;;;;;;;;;5082155;28;20176;-75
2022/09/21 00:49:44;;;;;;;5.53;4.23;;;;;;;;;;5068276;28;20279;-76
2022/09/21 00:52:13;;;;;;;5.27;3.90;;;;;;;;;;5084741;28;20249;-76
2022/09/21 00:54:43;;;;;;;5.77;4.30;;;;;;;;;;5088494;28;20177;-76
2022/09/21 00:57:10;;;;;;;7.30;4.03;;;;;;;;;;5082595;28;20188;-76
2022/09/21 00:59:37;;;;;;;9.03;3.70;;;;;;;;;;5081442;28;20246;-76
2022/09/21 01:02:04;;;;;;;6.30;3.77;;;;;;;;;;5084150;28;20188;-76
2022/09/21 01:04:31;;;;;;;4.23;3.63;;;;;;;;;;5081848;28;20761;-76
2022/09/21 01:06:59;;;;;;;4.37;3.70;;;;;;;;;;5076604;28;20211;-76
2022/09/21 01:09:25;;;;;;;4.50;3.57;;;;;;;;;;5080854;28;20208;-76
2022/09/21 01:12:01;;;;;;;5.90;4.40;;;;;;;;;;5077342;28;20726;-76
2022/09/21 01:14:33;;;;;;;4.33;3.50;;;;;;;;;;5078819;28;20562;-75
2022/09/21 01:17:02;;;;;;;7.10;4.23;;;;;;;;;;5082139;28;20180;-76
2022/09/21 01:19:29;;;;;;;7.83;4.00;;;;;;;;;;5082747;28;20689;-76
2022/09/21 01:22:01;;;;;;;6.97;4.17;;;;;;;;;;5081027;28;20184;-76
2022/09/21 01:24:27;;;;;;;5.93;4.23;;;;;;;;;;5083461;28;20598;-76
2022/09/21 01:27:00;;;;;;;4.10;3.70;;;;;;;;;;5083873;28;20174;-76
2022/09/21 01:29:37;;;;;;;7.43;3.83;;;;;;;;;;5064384;28;20226;-76
2022/09/21 01:32:06;;;;;;;5.47;3.73;;;;;;;;;;5078922;28;20180;-76
2022/09/21 01:34:38;;;;;;;8.10;3.50;;;;;;;;;;5083050;28;20656;-76
2022/09/21 01:37:08;;;;;;;9.03;4.23;;;;;;;;;;5081405;28;20184;-76
2022/09/21 01:39:35;;;;;;;4.93;4.20;;;;;;;;;;5083572;28;20265;-76
2022/09/21 01:42:03;;;;;;;5.53;4.10;;;;;;;;;;5083265;28;20782;-76
2022/09/21 01:44:32;;;;;;;3.83;3.40;;;;;;;;;;5079884;28;20197;-75
2022/09/21 01:46:59;;;;;;;5.80;3.50;;;;;;;;;;5077168;28;20181;-76
2022/09/21 01:49:36;;;;;;;6.23;4.00;;;;;;;;;;5078150;28;20235;-76
2022/09/21 01:52:07;;;;;;;4.07;3.53;;;;;;;;;;5077910;28;20169;-76
2022/09/21 01:54:40;;;;;;;5.10;4.10;;;;;;;;;;5066198;28;20187;-76
2022/09/21 01:57:08;;;;;;;4.73;3.47;;;;;;;;;;5081419;28;20173;-76
2022/09/21 01:59:42;;;;;;;4.03;3.17;;;;;;;;;;5077330;28;20904;-76
2022/09/21 02:02:11;;;;;;;4.83;3.40;;;;;;;;;;5083183;28;20176;-76
2022/09/21 02:04:38;;;;;;;4.03;3.57;;;;;;;;;;5079574;28;20192;-75
2022/09/21 02:07:05;;;;;;;5.00;3.93;;;;;;;;;;5080763;28;20172;-76
2022/09/21 02:09:32;;;;;;;4.80;3.70;;;;;;;;;;5083233;28;20939;-76
2022/09/21 02:12:01;;;;;;;5.97;4.40;;;;;;;;;;5077077;28;20711;-76
2022/09/21 02:14:27;;;;;;;7.53;4.40;;;;;;;;;;5077640;28;20184;-75
2022/09/21 02:17:06;;;;;;;4.37;3.97;;;;;;;;;;5083028;28;20259;-75
2022/09/21 02:19:47;;;;;;;5.43;4.60;;;;;;;;;;5079631;28;20204;-76
2022/09/21 02:22:14;;;;;;;7.67;4.07;;;;;;;;;;5076688;28;20180;-76
2022/09/21 02:24:42;;;;;;;5.77;4.20;;;;;;;;;;5080360;28;20837;-75
2022/09/21 02:27:27;;;;;;;5.57;3.87;;;;;;;;;;5064794;28;20180;-76
2022/09/21 02:30:06;;;;;;;5.60;3.60;;;;;;;;;;5078073;28;20242;-76
2022/09/21 02:33:11;;;;;;;3.43;3.13;;;;;;;;;;5059260;28;20191;-76
2022/09/21 02:35:39;;;;;;;4.73;3.57;;;;;;;;;;5018280;28;20190;-76
2022/09/21 02:38:14;;;;;;;4.90;3.50;;;;;;;;;;5022379;28;20189;-75
2022/09/21 02:41:02;;;;;;;6.07;3.40;;;;;;;;;;5052621;28;20188;-76
2022/09/21 02:43:35;;;;;;;4.97;4.10;;;;;;;;;;5078068;28;20613;-76
2022/09/21 02:46:06;;;;;;;5.07;3.50;;;;;;;;;;5059516;28;20181;-76
2022/09/21 02:48:37;;;;;;;5.40;3.80;;;;;;;;;;5078731;28;20240;-75
2022/09/21 02:51:10;;;;;;;4.23;3.67;;;;;;;;;;5077371;28;20180;-76
2022/09/21 02:53:38;;;;;;;5.50;3.73;;;;;;;;;;5075000;28;20185;-76
2022/09/21 02:56:06;;;;;;;5.03;3.93;;;;;;;;;;5083525;28;20185;-76
2022/09/21 02:58:35;;;;;;;6.00;4.10;;;;;;;;;;5081593;28;20208;-76
2022/09/21 03:01:07;;;;;;;5.93;3.97;;;;;;;;;;5080862;28;20193;-76
2022/09/21 03:03:34;;;;;;;3.40;3.10;;;;;;;;;;5077195;28;20912;-75
2022/09/21 03:06:01;;;;;;;2.67;2.47;;;;;;;;;;5080549;28;20208;-75
2022/09/21 03:08:27;;;;;;;4.30;2.27;;;;;;;;;;5077675;28;20243;-76
2022/09/21 03:10:53;;;;;;;3.50;2.40;;;;;;;;;;5079414;28;20178;-76
2022/09/21 03:13:19;;;;;;;3.07;2.67;;;;;;;;;;5078972;28;20180;-76
2022/09/21 03:15:46;;;;;;;3.10;2.80;;;;;;;;;;5079751;28;20177;-76
2022/09/21 03:18:12;;;;;;;3.27;2.97;;;;;;;;;;5065696;28;20215;-76
2022/09/21 03:20:40;;;;;;;4.93;3.50;;;;;;;;;;5083622;28;20416;-76
2022/09/21 03:23:06;;;;;;;4.57;3.23;;;;;;;;;;5084937;28;20661;-76
2022/09/21 03:25:33;;;;;;;3.97;3.60;;;;;;;;;;5082711;28;20172;-76
2022/09/21 03:28:00;;;;;;;5.23;3.50;;;;;;;;;;5080630;28;20274;-76
2022/09/21 03:30:28;;;;;;;10.87;6.43;;;;;;;;;;5085682;28;20531;-76
2022/09/21 03:32:54;;;;;;;5.60;3.60;;;;;;;;;;5082947;28;20671;-76
2022/09/21 03:35:21;;;;;;;3.63;3.20;;;;;;;;;;5068999;28;20256;-76
2022/09/21 03:37:48;;;;;;;3.70;3.23;;;;;;;;;;5063369;28;20728;-75
2022/09/21 03:40:15;;;;;;;2.90;2.60;;;;;;;;;;5084244;28;20192;-76
2022/09/21 03:42:42;;;;;;;3.00;2.70;;;;;;;;;;5081567;28;20203;-76
2022/09/21 03:45:09;;;;;;;3.40;3.10;;;;;;;;;;5081952;28;20177;-75
2022/09/21 03:47:35;;;;;;;4.10;2.63;;;;;;;;;;5080677;28;20232;-75
2022/09/21 03:50:01;;;;;;;3.27;2.97;;;;;;;;;;5084868;28;20207;-76
2022/09/21 03:52:27;;;;;;;2.77;2.57;;;;;;;;;;5082027;28;20187;-76
2022/09/21 03:54:54;;;;;;;2.97;2.67;;;;;;;;;;5082424;28;20297;-76
2022/09/21 03:57:20;;;;;;;3.13;2.83;;;;;;;;;;5082809;28;20549;-75
2022/09/21 03:59:47;;;;;;;2.70;2.40;;;;;;;;;;5081707;28;20219;-75
2022/09/21 04:02:14;;;;;;;3.20;2.90;;;;;;;;;;5087282;28;20296;-76
2022/09/21 04:04:40;;;;;;;3.60;3.17;;;;;;;;;;5083529;28;20526;-76
2022/09/21 04:07:07;;;;;;;3.10;2.80;;;;;;;;;;5064340;28;20827;-76
2022/09/21 04:09:33;;;;;;;4.73;2.90;;;;;;;;;;5080202;28;20213;-76
2022/09/21 04:12:00;;;;;;;3.47;3.17;;;;;;;;;;5082831;28;20781;-76
2022/09/21 04:14:26;;;;;;;4.27;3.20;;;;;;;;;;5062397;28;20181;-76
2022/09/21 04:16:52;;;;;;;5.47;3.80;;;;;;;;;;5078324;28;20184;-76
2022/09/21 04:19:20;;;;;;;4.20;3.37;;;;;;;;;;5079738;28;20207;-76
2022/09/21 04:21:46;;;;;;;4.23;3.13;;;;;;;;;;5085477;28;20666;-76
2022/09/21 04:24:12;;;;;;;4.40;3.70;;;;;;;;;;5083222;28;20192;-76
2022/09/21 04:26:39;;;;;;;3.97;3.40;;;;;;;;;;5078018;28;20260;-76
2022/09/21 04:29:06;;;;;;;3.50;3.13;;;;;;;;;;5079599;28;20220;-76
2022/09/21 04:31:32;;;;;;;3.97;3.20;;;;;;;;;;5080562;28;20177;-76
2022/09/21 04:33:58;;;;;;;4.57;3.00;;;;;;;;;;5083331;28;20196;-76
2022/09/21 04:36:26;;;;;;;4.57;4.00;;;;;;;;;;5078703;28;20185;-76
2022/09/21 04:38:52;;;;;;;4.60;4.00;;;;;;;;;;5067478;28;20254;-76
2022/09/21 04:41:18;;;;;;;7.50;4.53;;;;;;;;;;5084301;28;20652;-76
2022/09/21 04:43:44;;;;;;;5.00;4.30;;;;;;;;;;5080129;28;20617;-76
2022/09/21 04:46:12;;;;;;;6.60;5.30;;;;;;;;;;5061945;28;20406;-76
2022/09/21 04:48:38;;;;;;;6.43;4.97;;;;;;;;;;5082017;28;20935;-76
2022/09/21 04:51:06;;;;;;;7.10;4.63;;;;;;;;;;5085200;28;20172;-76
2022/09/21 04:53:33;;;;;;;7.00;5.63;;;;;;;;;;5083048;28;20426;-76
2022/09/21 04:55:59;;;;;;;7.10;4.97;;;;;;;;;;5082394;28;20216;-76
2022/09/21 04:58:26;;;;;;;4.97;4.47;;;;;;;;;;5066329;28;20221;-76
2022/09/21 05:00:56;;;;;;;6.10;4.40;;;;;;;;;;5084051;28;20180;-76
2022/09/21 05:03:23;;;;;;;5.33;4.37;;;;;;;;;;5081516;28;20177;-76
2022/09/21 05:05:51;;;;;;;4.97;3.80;;;;;;;;;;5081329;28;20196;-76
2022/09/21 05:10:01;;;;;;;5.97;4.70;;;;;;;;;;5079718;28;20216;-76
2022/09/21 05:11:03;;;;;;;6.30;4.07;;;;;;;;;;5076010;28;20211;-77
2022/09/21 05:13:29;;;;;;;5.33;3.93;;;;;;;;;;5068016;28;20715;-76
2022/09/21 05:15:55;;;;;;;7.67;3.60;;;;;;;;;;5080750;28;20170;-75
2022/09/21 05:18:22;;;;;;;4.53;3.80;;;;;;;;;;5082005;28;20228;-73
2022/09/21 05:20:58;;;;;;;4.13;3.70;;;;;;;;;;5063714;28;20172;-78
2022/09/21 05:23:24;;;;;;;5.00;4.17;;;;;;;;;;5079896;28;20191;-77
2022/09/21 05:25:50;;;;;;;7.60;3.87;;;;;;;;;;5081236;28;20211;-77
2022/09/21 05:28:17;;;;;;;4.87;3.93;;;;;;;;;;5082223;28;20204;-80
2022/09/21 05:30:52;;;;;;;6.23;4.20;;;;;;;;;;5079850;28;20624;-77
2022/09/21 05:33:20;;;;;;;5.50;4.10;;;;;;;;;;5081055;28;20176;-79
2022/09/21 05:36:04;;;;;;;4.83;3.83;;;;;;;;;;5062966;28;20193;-73
2022/09/21 05:38:31;;;;;;;5.47;4.00;;;;;;;;;;5080928;28;20244;-76
2022/09/21 05:40:57;;;;;;;7.03;4.30;;;;;;;;;;5075326;28;20209;-77
2022/09/21 05:43:23;;;;;;;4.20;3.80;;;;;;;;;;5080759;28;20188;-77
2022/09/21 05:45:56;;;;;;;4.83;3.47;;;;;;;;;;5079621;28;20827;-77
2022/09/21 05:48:25;;;;;;;3.87;3.40;;;;;;;;;;5082369;28;20215;-77
2022/09/21 05:50:56;;;;;;;3.20;2.90;;;;;;;;;;5080263;28;21062;-77
2022/09/21 05:53:22;;;;;;;3.23;2.93;;;;;;;;;;5076406;28;20212;-76
2022/09/21 05:55:52;;;;;;;8.33;3.40;;;;;;;;;;5074965;28;20599;-76
2022/09/21 05:58:37;;;;;;;5.30;3.60;;;;;;;;;;5074256;28;20291;-76
2022/09/21 06:01:12;;;;;;;6.53;4.70;;;;;;;;;;5073084;28;20177;-76
2022/09/21 06:03:40;;;;;;;5.23;4.67;;;;;;;;;;5072231;28;20210;-76
2022/09/21 06:06:07;;;;;;;4.63;4.10;;;;;;;;;;5075616;28;20268;-76
2022/09/21 06:08:33;;;;;;;4.20;3.80;;;;;;;;;;5076873;28;20319;-76
2022/09/21 06:11:00;;;;;;;4.30;3.47;;;;;;;;;;5076346;28;20250;-76
2022/09/21 06:13:26;;;;;;;4.23;3.43;;;;;;;;;;5078522;28;20806;-76
2022/09/21 06:15:52;;;;;;;5.67;3.87;;;;;;;;;;5077072;28;20169;-76
2022/09/21 06:18:19;;;;;;;5.80;3.97;;;;;;;;;;5043594;28;20619;-76
2022/09/21 06:20:45;;;;;;;6.03;4.30;;;;;;;;;;5080053;28;20271;-76
2022/09/21 06:23:12;;;;;;;6.83;4.47;;;;;;;;;;5057535;28;20554;-76
2022/09/21 06:25:39;;;;;;;6.00;4.70;;;;;;;;;;5079314;28;20200;-76
2022/09/21 06:28:05;;;;;;;5.80;4.33;;;;;;;;;;5079357;28;20647;-76
2022/09/21 06:30:33;;;;;;;5.43;4.27;;;;;;;;;;5078755;28;20243;-76
2022/09/21 06:33:03;;;;;;;5.10;4.10;;;;;;;;;;5079634;28;20181;-76
2022/09/21 06:35:29;;;;;;;5.27;4.33;;;;;;;;;;5076036;28;21670;-76
2022/09/21 06:38:03;;;;;;;6.20;3.97;;;;;;;;;;5077134;28;20181;-76
2022/09/21 06:40:30;;;;;;;6.33;4.17;;;;;;;;;;5063689;28;20625;-76
2022/09/21 06:43:00;;;;;;;6.53;4.30;;;;;;;;;;5057324;28;20188;-76
2022/09/21 06:45:26;;;;;;;6.33;4.20;;;;;;;;;;5086612;28;20188;-76
2022/09/21 06:47:53;;;;;;;6.90;4.27;;;;;;;;;;5080072;28;20216;-76
2022/09/21 06:50:19;;;;;;;4.50;3.80;;;;;;;;;;5083317;28;20205;-76
2022/09/21 06:52:45;;;;;;;4.53;4.10;;;;;;;;;;5081924;28;20192;-76
2022/09/21 06:55:12;;;;;;;6.03;4.50;;;;;;;;;;5064910;28;20816;-74
2022/09/21 06:57:39;;;;;;;5.97;4.67;;;;;;;;;;5081555;28;20587;-73
2022/09/21 07:00:06;;;;;;;7.43;5.00;;;;;;;;;;5079221;28;20303;-73
2022/09/21 07:02:32;;;;;;;6.80;4.57;;;;;;;;;;5076067;28;20772;-74
2022/09/21 07:04:59;;;;;;;5.63;4.57;;;;;;;;;;5061130;28;20484;-74
2022/09/21 07:07:25;;;;;;;5.73;4.70;;;;;;;;;;5077028;28;20648;-74
2022/09/21 07:09:51;;;;;;;7.60;4.60;;;;;;;;;;5078244;28;20209;-74
2022/09/21 07:12:18;;;;;;;6.23;5.50;;;;;;;;;;5082177;28;20187;-74
2022/09/21 07:14:45;;;;;;;6.57;4.90;;;;;;;;;;5083710;28;20222;-74
2022/09/21 07:17:12;;;;;;;7.00;4.43;;;;;;;;;;5079221;28;20207;-75
2022/09/21 07:19:38;;;;;;;7.33;5.07;;;;;;;;;;5061344;28;20204;-74
2022/09/21 07:22:04;;;;;;;5.70;5.00;;;;;;;;;;5075129;28;20249;-76
2022/09/21 07:24:30;;;;;;;6.67;5.13;;;;;;;;;;5076581;28;20180;-73
2022/09/21 07:26:57;;;;;;;5.23;4.73;;;;;;;;;;5041691;28;20197;-73
2022/09/21 07:29:23;;;;;;;7.83;5.00;;;;;;;;;;5075477;28;20748;-73
2022/09/21 07:31:49;;;;;;;6.17;4.87;;;;;;;;;;5074026;28;20710;-73
2022/09/21 07:34:15;;;;;;;5.27;4.77;;;;;;;;;;5075925;28;20191;-73
2022/09/21 07:36:41;;;;;;;6.07;4.40;;;;;;;;;;5074523;28;20261;-74
2022/09/21 07:39:08;;;;;;;6.23;5.20;;;;;;;;;;5076947;28;20280;-75
2022/09/21 07:41:35;;;;;;;6.20;5.20;;;;;;;;;;5077615;28;20189;-75
2022/09/21 07:44:02;;;;;;;5.97;5.27;;;;;;;;;;5073884;28;20197;-74
2022/09/21 07:46:28;;;;;;;5.00;4.50;;;;;;;;;;5074825;28;20184;-75
2022/09/21 07:48:55;;;;;;;5.37;4.87;;;;;;;;;;5075913;28;20257;-74
2022/09/21 07:51:21;;;;;;;7.60;5.30;;;;;;;;;;5074982;28;20300;-74
2022/09/21 07:53:47;;;;;;;6.77;5.20;;;;;;;;;;5082144;28;20224;-75
2022/09/21 07:56:15;;;;;;;7.33;5.07;;;;;;;;;;5076833;28;20184;-74
2022/09/21 08:01:27;;;;;;;5.17;4.67;;;;;;;;;;5075341;28;20283;-75
2022/09/21 08:03:55;;;;;;;6.27;4.87;;;;;;;;;;5081122;28;20696;-75
2022/09/21 08:06:22;;;;;;;6.53;5.13;;;;;;;;;;5078538;28;20189;-74
2022/09/21 08:08:48;;;;;;;7.90;5.10;;;;;;;;;;5081529;28;20256;-74
2022/09/21 08:11:15;;;;;;;7.83;4.97;;;;;;;;;;5080048;28;20181;-75
2022/09/21 08:13:41;;;;;;;6.50;5.20;;;;;;;;;;5080810;28;20239;-74
2022/09/21 08:16:08;;;;;;;7.40;4.73;;;;;;;;;;5080574;28;20182;-75
2022/09/21 08:18:38;;;;;;;5.50;4.40;;;;;;;;;;5043464;28;21517;-75
2022/09/21 08:21:04;;;;;;;5.33;4.53;;;;;;;;;;5062876;28;20280;-75
2022/09/21 08:23:31;;;;;;;4.67;3.67;;;;;;;;;;5081369;28;20196;-74
2022/09/21 08:26:01;;;;;;;7.73;4.63;;;;;;;;;;5079932;28;20184;-75
2022/09/21 08:28:29;;;;;;;7.23;4.20;;;;;;;;;;5074670;28;20221;-75
2022/09/21 08:30:58;;;;;;;5.77;4.43;;;;;;;;;;5059760;28;20185;-75
2022/09/21 08:33:26;;;;;;;5.03;4.30;;;;;;;;;;5061766;28;20614;-74
2022/09/21 08:35:56;;;;;;;5.40;4.80;;;;;;;;;;5078772;28;20184;-72
2022/09/21 08:38:22;;;;;;;6.50;4.27;;;;;;;;;;5081009;28;20216;-73
2022/09/21 08:40:49;;;;;;;5.53;4.20;;;;;;;;;;5074814;28;20542;-73
2022/09/21 08:43:29;;;;;;;5.27;4.17;;;;;;;;;;5079145;28;20260;-73
2022/09/21 08:45:57;;;;;;;4.27;3.40;;;;;;;;;;5077518;28;20187;-75
2022/09/21 08:48:25;;;;;;;5.13;3.90;;;;;;;;;;5081676;28;20207;-77
2022/09/21 08:50:56;;;;;;;8.50;4.00;;;;;;;;;;5085303;28;20259;-75
2022/09/21 08:53:22;;;;;;;5.10;3.77;;;;;;;;;;5081603;28;20752;-73
2022/09/21 08:55:48;;;;;;;5.23;4.43;;;;;;;;;;5065014;28;20614;-77
2022/09/21 08:58:22;;;;;;;8.80;5.63;;;;;;;;;;5082702;28;20714;-76
2022/09/21 09:00:50;;;;;;;8.07;5.17;;;;;;;;;;5080842;28;20220;-75
2022/09/21 09:03:35;;;;;;;11.00;5.47;;;;;;;;;;5083038;28;20176;-76
2022/09/21 09:06:04;;;;;;;8.17;5.00;;;;;;;;;;5046461;28;20230;-76
2022/09/21 09:08:36;;;;;;;6.63;5.00;;;;;;;;;;5060779;28;20300;-78
2022/09/21 09:11:15;;;;;;;8.60;4.63;;;;;;;;;;5084106;28;20272;-73
2022/09/21 09:14:00;;;;;;;4.83;4.33;;;;;;;;;;5047328;28;20192;-77
2022/09/21 09:16:42;;;;;;;6.27;3.57;;;;;;;;;;5083253;28;20659;-74
2022/09/21 09:19:12;;;;;;;4.40;3.30;;;;;;;;;;5064058;28;20212;-74
2022/09/21 09:21:40;;;;;;;4.93;3.60;;;;;;;;;;5062597;28;20192;-74
2022/09/21 09:24:06;;;;;;;3.73;2.77;;;;;;;;;;5063505;28;20631;-74
2022/09/21 09:26:41;;;;;;;4.50;3.00;;;;;;;;;;5064724;28;20268;-74
2022/09/21 09:29:20;;;;;;;4.97;3.40;;;;;;;;;;5081427;28;20581;-73
2022/09/21 09:31:47;;;;;;;4.83;2.77;;;;;;;;;;5047650;28;20227;-74
2022/09/21 09:34:26;;;;;;;4.87;3.27;;;;;;;;;;5065262;28;20183;-74
2022/09/21 09:36:58;;;;;;;5.33;2.80;;;;;;;;;;5067190;28;20185;-74
2022/09/21 09:39:24;;;;;;;3.53;2.70;;;;;;;;;;5081309;28;20209;-74
2022/09/21 09:42:07;;;;;;;5.07;2.60;;;;;;;;;;5080328;28;20189;-74
2022/09/21 09:44:33;;;;;;;3.40;2.50;;;;;;;;;;5077676;28;20181;-73
2022/09/21 09:47:05;;;;;;;3.10;2.13;;;;;;;;;;5042848;28;20290;-73
2022/09/21 09:49:31;;;;;;;3.83;2.30;;;;;;;;;;5076709;28;20213;-74
2022/09/21 09:51:58;;;;;;;3.00;2.40;;;;;;;;;;5081384;28;20875;-75
2022/09/21 09:54:26;;;;;;;2.90;2.10;;;;;;;;;;5061821;28;20180;-74
2022/09/21 09:56:54;;;;;;;6.23;2.53;;;;;;;;;;5045565;28;20184;-74
2022/09/21 09:59:31;;;;;;;3.70;2.50;;;;;;;;;;5061473;28;20250;-74
2022/09/21 10:02:00;;;;;;;4.53;2.37;;;;;;;;;;5050145;28;20188;-74
2022/09/21 10:04:26;;;;;;;2.70;2.00;;;;;;;;;;5081129;28;20188;-74
2022/09/21 10:06:53;;;;;;;5.03;2.30;;;;;;;;;;5084187;28;20184;-74
2022/09/21 10:09:19;;;;;;;4.37;2.10;;;;;;;;;;5086305;28;20208;-74
2022/09/21 10:11:47;;;;;;;2.43;1.73;;;;;;;;;;5065003;28;20203;-74
2022/09/21 10:14:18;;;;;;;4.47;1.97;;;;;;;;;;5083649;28;20667;-74
2022/09/21 10:16:44;;;;;;;4.27;1.70;;;;;;;;;;5077192;28;20177;-74
2022/09/21 10:19:24;;;;;;;3.57;1.60;;;;;;;;;;5078840;28;20741;-74
2022/09/21 10:21:56;;;;;;;1.90;1.50;;;;;;;;;;5078997;28;20199;-74
2022/09/21 10:24:24;;;;;;;4.87;1.43;;;;;;;;;;5084353;28;20195;-74
2022/09/21 10:27:05;;;;;;;3.40;1.67;;;;;;;;;;5085137;28;20212;-74
2022/09/21 10:30:00;;;;;;;4.43;1.57;;;;;;;;;;5083493;28;20211;-74
2022/09/21 10:32:28;;;;;;;3.63;2.00;;;;;;;;;;5062600;28;20212;-75
2022/09/21 10:35:02;;;;;;;2.77;1.47;;;;;;;;;;5086975;28;20176;-74
2022/09/21 10:37:41;;;;;;;2.97;1.40;;;;;;;;;;5085205;28;20648;-75
2022/09/21 10:40:29;;;;;;;2.27;1.50;;;;;;;;;;5084015;28;20547;-74
2022/09/21 10:42:57;;;;;;;2.73;1.60;;;;;;;;;;5064162;28;20188;-75
2022/09/21 10:45:27;;;;;;;3.43;1.60;;;;;;;;;;5079998;28;20230;-74
2022/09/21 10:47:58;;;;;;;3.43;1.50;;;;;;;;;;5079956;28;20192;-74
2022/09/21 10:50:37;;;;;;;2.03;1.20;;;;;;;;;;5082045;28;20307;-74
2022/09/21 10:53:09;;;;;;;2.87;1.40;;;;;;;;;;5081899;28;20176;-74
2022/09/21 10:55:40;;;;;;;3.83;1.50;;;;;;;;;;5080351;28;20671;-75
2022/09/21 10:58:11;;;;;;;1.77;1.17;;;;;;;;;;5086485;28;20212;-75
2022/09/21 11:00:42;;;;;;;2.63;1.40;;;;;;;;;;5066112;28;20193;-75
2022/09/21 11:03:27;;;;;;;3.43;1.40;;;;;;;;;;5082069;28;20176;-74
2022/09/21 11:05:55;;;;;;;3.20;1.70;;;;;;;;;;5083073;28;20197;-74
2022/09/21 11:08:36;;;;;;;1.93;1.33;;;;;;;;;;5080379;28;20633;-74
2022/09/21 11:11:11;;;;;;;2.70;1.40;;;;;;;;;;5050349;28;20613;-74
2022/09/21 11:13:55;;;;;;;2.33;1.40;;;;;;;;;;5079348;28;20173;-74
2022/09/21 11:16:41;;;;;;;2.90;1.80;;;;;;;;;;5064513;28;20172;-75
2022/09/21 11:19:24;;;;;;;2.67;1.60;;;;;;;;;;5083099;28;20196;-75
2022/09/21 11:22:02;;;;;;;5.10;1.70;;;;;;;;;;5063432;28;20188;-74
2022/09/21 11:24:48;;;;;;;3.20;1.73;;;;;;;;;;5065367;28;20196;-77
2022/09/21 11:27:18;;;;;;;2.03;1.30;;;;;;;;;;5068180;28;20184;-77
2022/09/21 11:30:06;;;;;;;2.97;1.40;;;;;;;;;;5077149;28;20213;-77
2022/09/21 11:32:51;;;;;;;1.63;1.20;;;;;;;;;;5032931;28;20205;-77
2022/09/21 11:35:32;;;;;;;1.43;0.93;;;;;;;;;;5088132;28;20557;-76
2022/09/21 11:38:20;;;;;;;1.90;1.27;;;;;;;;;;5078083;28;20172;-78
2022/09/21 11:40:53;;;;;;;2.77;1.10;;;;;;;;;;5093771;28;20188;-78
2022/09/21 11:43:23;;;;;;;2.50;1.00;;;;;;;;;;5093184;28;20554;-79
2022/09/21 11:45:57;;;;;;;2.30;0.90;;;;;;;;;;5034611;28;20440;-79
2022/09/21 11:48:35;;;;;;;2.00;0.90;;;;;;;;;;5071330;28;20238;-80
2022/09/21 11:51:19;;;;;;;2.07;1.00;;;;;;;;;;5087734;28;20958;-79
2022/09/21 11:53:50;;;;;;;1.17;0.90;;;;;;;;;;5087628;28;20189;-80
2022/09/21 11:56:42;;;;;;;1.27;0.83;;;;;;;;;;5086679;28;20184;-80
2022/09/21 11:59:24;;;;;;;4.13;1.00;;;;;;;;;;5089952;28;20208;-80
2022/09/21 12:02:09;;;;;;;2.27;0.90;;;;;;;;;;5088861;28;20188;-80
2022/09/21 12:04:54;;;;;;;1.27;0.80;;;;;;;;;;5091981;28;20176;-80
2022/09/21 12:07:30;;;;;;;1.00;0.90;;;;;;;;;;5090617;28;20188;-80
2022/09/21 12:10:15;;;;;;;0.93;0.80;;;;;;;;;;5093010;28;20290;-80
2022/09/21 12:12:52;;;;;;;1.27;0.90;;;;;;;;;;5077186;28;20276;-80
2022/09/21 12:15:21;;;;;;;1.00;0.90;;;;;;;;;;5096149;28;20180;-80
2022/09/21 12:17:49;;;;;;;0.97;0.87;;;;;;;;;;5079849;28;20373;-80
2022/09/21 12:20:19;;;;;;;1.23;0.90;;;;;;;;;;5073543;28;20238;-80
2022/09/21 12:22:50;;;;;;;0.80;0.70;;;;;;;;;;5092152;28;20273;-81
2022/09/21 12:25:37;;;;;;;1.00;0.70;;;;;;;;;;5092927;28;20253;-80
2022/09/21 12:28:07;;;;;;;1.17;0.90;;;;;;;;;;5077732;28;20189;-80
2022/09/21 12:30:34;;;;;;;1.10;0.60;;;;;;;;;;5094733;28;20224;-80
2022/09/21 12:33:14;;;;;;;1.93;1.60;;;;;;;;;;5093929;28;20192;-80
2022/09/21 12:35:42;;;;;;;0.80;0.80;;;;;;;;;;5077841;28;20183;-80
2022/09/21 12:38:18;;;;;;;0.67;0.67;;;;;;;;;;5076979;28;20268;-80
2022/09/21 12:40:58;;;;;;;2.60;1.00;;;;;;;;;;5092371;28;20664;-80
2022/09/21 12:43:28;;;;;;;1.33;0.83;;;;;;;;;;5076112;28;20192;-80
2022/09/21 12:46:27;;;;;;;0.70;0.70;;;;;;;;;;5076413;28;20199;-80
2022/09/21 12:48:53;;;;;;;2.17;0.80;;;;;;;;;;5015485;28;20239;-79
2022/09/21 12:51:25;;;;;;;0.83;0.70;;;;;;;;;;5091208;28;20215;-79
2022/09/21 12:53:56;;;;;;;0.80;0.70;;;;;;;;;;5094004;28;20534;-79
2022/09/21 12:56:43;;;;;;;0.60;0.60;;;;;;;;;;5092450;28;20180;-80
2022/09/21 12:59:13;;;;;;;0.83;0.80;;;;;;;;;;5092468;28;20220;-79
2022/09/21 13:01:54;;;;;;;1.07;0.83;;;;;;;;;;5076106;28;20654;-79
2022/09/21 13:04:37;;;;;;;0.87;0.80;;;;;;;;;;5078936;28;20672;-79
2022/09/21 13:07:23;;;;;;;1.63;0.90;;;;;;;;;;5048913;28;20189;-79
2022/09/21 13:09:50;;;;;;;2.30;1.60;;;;;;;;;;5089761;28;20221;-79
2022/09/21 13:12:16;;;;;;;3.23;1.00;;;;;;;;;;5071329;28;20656;-79
2022/09/21 13:14:47;;;;;;;1.97;1.20;;;;;;;;;;5093125;28;20546;-80
2022/09/21 13:17:24;;;;;;;1.10;0.97;;;;;;;;;;5096882;28;20308;-80
2022/09/21 13:20:20;;;;;;;1.80;1.20;;;;;;;;;;5093160;28;20889;-80
2022/09/21 13:22:48;;;;;;;0.67;0.60;;;;;;;;;;5076182;28;20207;-80
2022/09/21 13:25:30;;;;;;;0.73;0.70;;;;;;;;;;5097722;28;20195;-80
2022/09/21 13:27:59;;;;;;;0.80;0.80;;;;;;;;;;5092423;28;20231;-80
2022/09/21 13:30:31;;;;;;;1.50;1.20;;;;;;;;;;5094697;28;20712;-80
2022/09/21 13:32:58;;;;;;;1.27;0.97;;;;;;;;;;5098030;28;20189;-80
2022/09/21 13:35:43;;;;;;;1.30;0.90;;;;;;;;;;5073154;28;20186;-80
2022/09/21 13:38:24;;;;;;;1.10;0.83;;;;;;;;;;5094301;28;20185;-80
2022/09/21 13:41:01;;;;;;;0.83;0.67;;;;;;;;;;5075174;28;20587;-80
2022/09/21 13:43:52;;;;;;;1.63;1.00;;;;;;;;;;5095987;28;20185;-80
2022/09/21 13:46:34;;;;;;;0.83;0.77;;;;;;;;;;5087467;28;20230;-80
2022/09/21 13:49:09;;;;;;;0.80;0.80;;;;;;;;;;5094159;28;20228;-82
2022/09/21 13:51:51;;;;;;;0.90;0.70;;;;;;;;;;5078837;28;20186;-81
2022/09/21 13:54:19;;;;;;;1.60;0.80;;;;;;;;;;5093756;28;20195;-81
2022/09/21 13:56:46;;;;;;;1.40;0.70;;;;;;;;;;5091574;28;20192;-81
2022/09/21 13:59:23;;;;;;;1.00;0.90;;;;;;;;;;5060330;28;20233;-81
2022/09/21 14:01:49;;;;;;;1.10;1.00;;;;;;;;;;5088540;28;20187;-82
2022/09/21 14:04:22;;;;;;;0.80;0.80;;;;;;;;;;5094712;28;20188;-81
2022/09/21 14:06:49;;;;;;;0.90;0.80;;;;;;;;;;5088040;28;20198;-81
2022/09/21 14:09:23;;;;;;;1.43;0.80;;;;;;;;;;5088504;28;20218;-81
2022/09/21 14:11:54;;;;;;;2.80;1.00;;;;;;;;;;5086665;28;20565;-80
2022/09/21 14:14:20;;;;;;;1.33;1.00;;;;;;;;;;5086287;28;20723;-81
2022/09/21 14:16:50;;;;;;;1.40;1.00;;;;;;;;;;5087645;28;20261;-81
2022/09/21 14:19:16;;;;;;;1.13;0.80;;;;;;;;;;5087892;28;20204;-81
2022/09/21 14:22:01;;;;;;;1.83;0.90;;;;;;;;;;5076484;28;20179;-80
2022/09/21 14:24:41;;;;;;;0.80;0.80;;;;;;;;;;5091325;28;20472;-80
2022/09/21 14:27:16;;;;;;;0.70;0.70;;;;;;;;;;5079854;28;20176;-80
2022/09/21 14:29:45;;;;;;;0.60;0.60;;;;;;;;;;5089164;28;20208;-80
2022/09/21 14:32:15;;;;;;;0.70;0.70;;;;;;;;;;5087182;28;20177;-80
2022/09/21 14:34:42;;;;;;;4.50;3.53;;;;;;;;;;5074551;28;20268;-81
2022/09/21 14:37:31;;;;;;;2.40;1.80;;;;;;;;;;5090639;28;20186;-80
2022/09/21 14:39:59;;;;;;;1.57;1.33;;;;;;;;;;5074371;28;20232;-80
2022/09/21 14:42:27;;;;;;;1.23;1.00;;;;;;;;;;5085016;28;20195;-81
2022/09/21 14:44:56;;;;;;;1.73;1.50;;;;;;;;;;5082129;28;20248;-81
2022/09/21 14:47:38;;;;;;;1.40;1.30;;;;;;;;;;5080700;28;20207;-81
2022/09/21 14:50:21;;;;;;;1.73;1.47;;;;;;;;;;5082483;28;20214;-81
2022/09/21 14:53:06;;;;;;;1.30;1.10;;;;;;;;;;5087452;28;20270;-80
2022/09/21 14:55:51;;;;;;;1.10;1.00;;;;;;;;;;5082455;28;20187;-79
2022/09/21 14:58:30;;;;;;;1.47;0.90;;;;;;;;;;5047017;28;20247;-80
2022/09/21 15:01:14;;;;;;;1.10;1.00;;;;;;;;;;5084641;28;20180;-77
2022/09/21 15:03:51;;;;;;;2.60;1.30;;;;;;;;;;5083703;28;20178;-78
2022/09/21 15:12:10;;;;;;;1.40;0.80;;;;;;;;;;5083630;28;20181;-77
2022/09/21 15:14:42;;;;;;;1.40;0.90;;;;;;;;;;5089569;28;20184;-77